Bei Facebook empfehlenBei Twitter postenGoogle plusPinterest

Das Wetter im Erzgebirge am 22.01.2015

Wetter und Klima am 22.01.2015 Holzhau im Erzgebirge (630m ü.NN)
Letzte gemessene Temperatur und Uhrzeit der Messung23:45:00 Uhr-1.20 °C
Temperatur (Maximum / Höchstwert) und Uhrzeit der Messung12:45:00 Uhr1.00 °C
Temperatur (Minimum / Tiefstwert) und Uhrzeit der Messung00:00:00-1.30 °C
Errechneter Absolutwert der Temperaturschwankungen zwischen Tmin und Tmax des Tages2.30 K
Errechnete Tagesmitteltemperatur-0.04896 °C
Gesamt - Niederschlag des Tages (in flüssiger Form)0.00 Liter / m²
Luftdruck (Maximum / Höchstwert) und Zeitpunkt der Messung23:45:00 Uhr1013.50 hPa
Luftdruck (Minimum / Tiefstwert) und Zeitpunkt der Messung05:00:00 Uhr1009.10 hPa
Errechneter Absolutwert der Luftdruckschwankungen des Tages4.40 hPa
Höchste gemessene Windgeschwindigkeit und Uhrzeit der Messung05:15:00 Uhr13.32 km/h
Errechnete Windhäufigkeit in Relation zu den Messwerten des Tages2.08333 %
Niedrigste Windkühle (Windchill) und Zeitpunkt der Messung05:15:00 Uhr-4.00 °C
Taupunkt (Maximum / Höchstwert) und Uhrzeit der Messung12:45:00 Uhr0.00 °C
Taupunkt (Minimum / Tiefstwert) und Uhrzeit der Messung00:00:00-2.90 °C
Anzahl der automatisch eingelesenen Messwerte 96

Detaillierte Wetter- und Klima- Messwerte für den 22.01.2015 in Holzhau im Erzgebirge (630m ü.NN)
ZeitTemperaturLuftdruckRel. LuftfeuchteWindWindrichtungWindchillTaupunktNiederschlag l/m²
23:45:00-1.20 °C1013.50 hPa93.00 %-2.30 °C 
23:30:00-1.10 °C1013.40 hPa93.00 %-2.20 °C 
23:15:00-1.10 °C1013.50 hPa93.00 %-2.20 °C 
23:00:00-1.10 °C1013.40 hPa93.00 %-2.20 °C 
22:45:00-1.00 °C1013.40 hPa93.00 %-2.10 °C 
22:30:00-1.00 °C1013.30 hPa93.00 %-2.10 °C 
22:15:00-0.90 °C1013.10 hPa93.00 %-2.00 °C 
22:00:00-0.90 °C1013.00 hPa93.00 %-2.00 °C 
21:45:00-0.80 °C1013.00 hPa93.00 %-1.90 °C 
21:30:00-0.70 °C1012.80 hPa93.00 %-1.80 °C 
21:15:00-0.70 °C1012.80 hPa93.00 %-1.80 °C 
21:00:00-0.70 °C1012.80 hPa93.00 %-1.80 °C 
20:45:00-0.70 °C1012.60 hPa93.00 %-1.80 °C 
20:30:00-0.70 °C1012.50 hPa93.00 %-1.80 °C 
20:15:00-0.70 °C1012.30 hPa93.00 %-1.80 °C 
20:00:00-0.70 °C1012.30 hPa93.00 %-1.80 °C 
19:45:00-0.70 °C1012.20 hPa93.00 %-1.80 °C 
19:30:00-0.60 °C1012.10 hPa93.00 %-1.70 °C 
19:15:00-0.50 °C1012.20 hPa93.00 %-1.60 °C 
19:00:00-0.50 °C1012.20 hPa93.00 %-1.60 °C 
18:45:00-0.40 °C1012.20 hPa93.00 %-1.50 °C 
18:30:00-0.40 °C1012.10 hPa93.00 %-1.50 °C 
18:15:00-0.40 °C1012.10 hPa93.00 %-1.50 °C 
18:00:00-0.40 °C1012.00 hPa93.00 %-1.50 °C 
17:45:00-0.40 °C1011.90 hPa93.00 %-1.50 °C 
17:30:00-0.30 °C1012.00 hPa93.00 %-1.40 °C 
17:15:00-0.20 °C1011.70 hPa92.00 %-1.50 °C 
17:00:00-0.20 °C1011.50 hPa92.00 %-1.50 °C 
16:45:00-0.10 °C1011.50 hPa92.00 %-1.40 °C 
16:30:00-0.10 °C1011.30 hPa92.00 %-1.40 °C 
16:15:000.10 °C1011.30 hPa92.00 %-1.00 °C 
16:00:000.20 °C1011.10 hPa92.00 %-0.90 °C 
15:45:000.40 °C1010.80 hPa92.00 %-0.70 °C 
15:30:000.50 °C1010.60 hPa92.00 %-0.60 °C 
15:15:000.60 °C1010.60 hPa92.00 %-0.50 °C 
15:00:000.70 °C1010.50 hPa93.00 %-0.30 °C 
14:45:000.80 °C1010.50 hPa92.00 %-0.30 °C 
14:30:000.50 °C1010.50 hPa93.00 %-0.50 °C 
14:15:000.50 °C1010.50 hPa92.00 %-0.60 °C 
14:00:000.50 °C1010.60 hPa93.00 %-0.50 °C 
13:45:000.50 °C1010.70 hPa92.00 %-0.60 °C 
13:30:000.70 °C1010.60 hPa92.00 %-0.40 °C 
13:15:000.90 °C1010.70 hPa92.00 %-0.20 °C 
13:00:000.90 °C1010.70 hPa93.00 %-0.10 °C 
12:45:001.00 °C1010.70 hPa93.00 %0.00 °C 
12:30:000.90 °C1010.80 hPa93.00 %-0.10 °C 
12:15:000.90 °C1010.90 hPa93.00 %-0.10 °C 
12:00:000.80 °C1010.70 hPa93.00 %-0.20 °C 
11:45:000.70 °C1010.80 hPa93.00 %-0.30 °C 
11:30:000.60 °C1010.60 hPa93.00 %-0.40 °C 
11:15:000.50 °C1010.70 hPa93.00 %-0.50 °C 
11:00:000.50 °C1010.80 hPa93.00 %-0.50 °C 
10:45:000.50 °C1010.70 hPa93.00 %-0.50 °C 
10:30:000.40 °C1010.60 hPa93.00 %-0.60 °C 
10:15:000.30 °C1010.60 hPa93.00 %-0.70 °C 
10:00:000.20 °C1010.70 hPa93.00 %-0.80 °C 
09:45:000.20 °C1010.40 hPa92.00 %-0.90 °C 
09:30:000.20 °C1010.40 hPa92.00 %-0.90 °C 
09:15:000.20 °C1010.10 hPa92.00 %-0.90 °C 
09:00:000.30 °C1010.00 hPa92.00 %-0.80 °C 
08:45:000.30 °C1009.80 hPa92.00 %-0.80 °C 
08:30:000.40 °C1009.80 hPa93.00 %-0.60 °C 
08:15:000.30 °C1009.90 hPa92.00 %-0.80 °C 
08:00:000.30 °C1009.90 hPa92.00 %-0.80 °C 
07:45:000.20 °C1009.50 hPa92.00 %-0.90 °C 
07:30:000.20 °C1009.40 hPa92.00 %-0.90 °C 
07:15:000.10 °C1009.40 hPa92.00 %-1.00 °C 
07:00:000.20 °C1009.40 hPa92.00 %-0.90 °C 
06:45:000.10 °C1009.40 hPa92.00 %-1.00 °C 
06:30:000.10 °C1009.40 hPa92.00 %-1.00 °C 
06:15:000.10 °C1009.40 hPa92.00 %-1.00 °C 
06:00:000.10 °C1009.30 hPa92.00 %-1.00 °C 
05:45:000.10 °C1009.20 hPa92.00 %-1.00 °C 
05:30:000.10 °C1009.30 hPa92.00 %-1.00 °C 
05:15:000.10 °C1009.20 hPa92.00 %13.32 km/hSO-4.00 °C-1.00 °C 
05:00:000.20 °C1009.10 hPa92.00 %-0.90 °C 
04:45:000.30 °C1009.20 hPa92.00 %-0.80 °C 
04:30:000.20 °C1009.10 hPa92.00 %3.96 km/hOSO0.20 °C-0.90 °C 
04:15:000.30 °C1009.10 hPa91.00 %-1.00 °C 
04:00:000.30 °C1009.20 hPa92.00 %-0.80 °C 
03:45:000.20 °C1009.20 hPa91.00 %-1.10 °C 
03:30:000.20 °C1009.40 hPa91.00 %-1.10 °C 
03:15:000.30 °C1009.50 hPa91.00 %-1.00 °C 
03:00:000.30 °C1009.40 hPa91.00 %-1.00 °C 
02:45:000.30 °C1009.30 hPa91.00 %-1.00 °C 
02:30:000.20 °C1009.50 hPa91.00 %-1.10 °C 
02:15:00-0.10 °C1009.20 hPa91.00 %-1.50 °C 
02:00:00-0.20 °C1009.40 hPa91.00 %-1.60 °C 
01:45:00-0.40 °C1009.40 hPa91.00 %-1.80 °C 
01:30:00-0.50 °C1009.60 hPa91.00 %-1.90 °C 
01:15:00-0.60 °C1009.80 hPa91.00 %-2.00 °C 
01:00:00-0.80 °C1009.70 hPa90.00 %-2.40 °C 
00:45:00-0.90 °C1009.90 hPa90.00 %-2.50 °C 
00:30:00-1.00 °C1009.90 hPa90.00 %-2.60 °C 
00:15:00-1.20 °C1010.00 hPa90.00 %-2.80 °C 
00:00:00-1.30 °C1010.20 hPa90.00 %-2.90 °C 

Permanenter Link zu dieser Seite: Wetter im Erzgebirge am 22.01.2015
Performance-Info: Die Erstellung der Seite / Statistik(en) / Tabelle(n) erforderte 5 Datenbankserver-Abfrage(n) und dauerte 100 Millisekunden. (Dieser Messwert ist von der Gesamt-Auslastung des Servers abhängig.)
Erzgebirge - Wetter | Erzgebirge - Wetter (Mobilgeräte) | Komplette Klimadatenbank